sensor_id;sensor_type;location;lat;lon;timestamp;P1;durP1;ratioP1;P2;durP2;ratioP2
27959;SDS011;15299;48.184;-1.916;2022-07-17T00:00:37;11.05;;;2.22;;
27959;SDS011;15299;48.184;-1.916;2022-07-17T00:03:07;4.13;;;2.10;;
27959;SDS011;15299;48.184;-1.916;2022-07-17T00:05:35;5.03;;;2.00;;
27959;SDS011;15299;48.184;-1.916;2022-07-17T00:08:05;7.63;;;2.40;;
27959;SDS011;15299;48.184;-1.916;2022-07-17T00:10:32;3.45;;;2.10;;
27959;SDS011;15299;48.184;-1.916;2022-07-17T00:13:00;8.93;;;2.60;;
27959;SDS011;15299;48.184;-1.916;2022-07-17T00:15:28;9.95;;;3.72;;
27959;SDS011;15299;48.184;-1.916;2022-07-17T00:17:56;8.05;;;2.65;;
27959;SDS011;15299;48.184;-1.916;2022-07-17T00:20:24;5.05;;;2.45;;
27959;SDS011;15299;48.184;-1.916;2022-07-17T00:22:52;6.35;;;1.98;;
27959;SDS011;15299;48.184;-1.916;2022-07-17T00:25:21;4.28;;;2.40;;
27959;SDS011;15299;48.184;-1.916;2022-07-17T00:27:49;6.30;;;2.25;;
27959;SDS011;15299;48.184;-1.916;2022-07-17T00:30:17;11.23;;;3.17;;
27959;SDS011;15299;48.184;-1.916;2022-07-17T00:32:45;3.88;;;1.85;;
27959;SDS011;15299;48.184;-1.916;2022-07-17T00:35:12;6.03;;;2.47;;
27959;SDS011;15299;48.184;-1.916;2022-07-17T00:37:40;8.35;;;2.50;;
27959;SDS011;15299;48.184;-1.916;2022-07-17T00:40:09;6.75;;;2.65;;
27959;SDS011;15299;48.184;-1.916;2022-07-17T00:42:39;4.10;;;2.42;;
27959;SDS011;15299;48.184;-1.916;2022-07-17T00:45:07;4.72;;;2.17;;
27959;SDS011;15299;48.184;-1.916;2022-07-17T00:47:35;5.22;;;2.10;;
27959;SDS011;15299;48.184;-1.916;2022-07-17T00:50:16;6.75;;;2.30;;
27959;SDS011;15299;48.184;-1.916;2022-07-17T00:52:43;8.27;;;2.30;;
27959;SDS011;15299;48.184;-1.916;2022-07-17T00:55:11;2.92;;;2.17;;
27959;SDS011;15299;48.184;-1.916;2022-07-17T00:57:40;5.82;;;2.53;;
27959;SDS011;15299;48.184;-1.916;2022-07-17T01:00:10;3.72;;;2.05;;
27959;SDS011;15299;48.184;-1.916;2022-07-17T01:02:37;5.00;;;2.58;;
27959;SDS011;15299;48.184;-1.916;2022-07-17T01:05:05;8.85;;;2.35;;
27959;SDS011;15299;48.184;-1.916;2022-07-17T01:07:33;5.32;;;2.53;;
27959;SDS011;15299;48.184;-1.916;2022-07-17T01:10:01;4.63;;;2.20;;
27959;SDS011;15299;48.184;-1.916;2022-07-17T01:12:28;3.22;;;2.38;;
27959;SDS011;15299;48.184;-1.916;2022-07-17T01:14:58;4.97;;;2.30;;
27959;SDS011;15299;48.184;-1.916;2022-07-17T01:17:26;6.50;;;2.33;;
27959;SDS011;15299;48.184;-1.916;2022-07-17T01:19:54;3.55;;;2.30;;
27959;SDS011;15299;48.184;-1.916;2022-07-17T01:22:23;5.90;;;2.42;;
27959;SDS011;15299;48.184;-1.916;2022-07-17T01:24:51;5.57;;;2.35;;
27959;SDS011;15299;48.184;-1.916;2022-07-17T01:27:18;2.75;;;2.25;;
27959;SDS011;15299;48.184;-1.916;2022-07-17T01:29:46;3.78;;;2.00;;
27959;SDS011;15299;48.184;-1.916;2022-07-17T01:32:13;7.10;;;2.75;;
27959;SDS011;15299;48.184;-1.916;2022-07-17T01:34:41;8.45;;;2.42;;
27959;SDS011;15299;48.184;-1.916;2022-07-17T01:37:08;4.57;;;2.92;;
27959;SDS011;15299;48.184;-1.916;2022-07-17T01:39:38;6.47;;;2.70;;
27959;SDS011;15299;48.184;-1.916;2022-07-17T01:42:20;4.20;;;2.50;;
27959;SDS011;15299;48.184;-1.916;2022-07-17T01:44:48;10.93;;;2.38;;
27959;SDS011;15299;48.184;-1.916;2022-07-17T01:47:16;5.03;;;2.60;;
27959;SDS011;15299;48.184;-1.916;2022-07-17T01:49:44;4.93;;;2.40;;
27959;SDS011;15299;48.184;-1.916;2022-07-17T01:52:11;6.00;;;2.30;;
27959;SDS011;15299;48.184;-1.916;2022-07-17T01:54:40;7.70;;;3.10;;
27959;SDS011;15299;48.184;-1.916;2022-07-17T01:57:09;3.72;;;2.00;;
27959;SDS011;15299;48.184;-1.916;2022-07-17T01:59:37;3.33;;;1.88;;
27959;SDS011;15299;48.184;-1.916;2022-07-17T02:02:05;6.43;;;2.17;;
27959;SDS011;15299;48.184;-1.916;2022-07-17T02:04:33;3.03;;;2.10;;
27959;SDS011;15299;48.184;-1.916;2022-07-17T02:07:01;4.22;;;2.13;;
27959;SDS011;15299;48.184;-1.916;2022-07-17T02:09:29;6.15;;;2.58;;
27959;SDS011;15299;48.184;-1.916;2022-07-17T02:11:58;6.18;;;2.47;;
27959;SDS011;15299;48.184;-1.916;2022-07-17T02:14:25;6.65;;;2.60;;
27959;SDS011;15299;48.184;-1.916;2022-07-17T02:16:53;2.65;;;2.33;;
27959;SDS011;15299;48.184;-1.916;2022-07-17T02:19:20;5.55;;;2.30;;
27959;SDS011;15299;48.184;-1.916;2022-07-17T02:21:48;4.10;;;2.13;;
27959;SDS011;15299;48.184;-1.916;2022-07-17T02:24:16;8.27;;;2.72;;
27959;SDS011;15299;48.184;-1.916;2022-07-17T02:26:43;9.15;;;2.70;;
27959;SDS011;15299;48.184;-1.916;2022-07-17T02:29:12;4.55;;;2.63;;
27959;SDS011;15299;48.184;-1.916;2022-07-17T02:31:40;8.23;;;2.70;;
27959;SDS011;15299;48.184;-1.916;2022-07-17T02:34:08;2.60;;;2.25;;
27959;SDS011;15299;48.184;-1.916;2022-07-17T02:36:36;4.57;;;2.10;;
27959;SDS011;15299;48.184;-1.916;2022-07-17T02:39:04;5.53;;;2.53;;
27959;SDS011;15299;48.184;-1.916;2022-07-17T02:41:31;5.60;;;2.63;;
27959;SDS011;15299;48.184;-1.916;2022-07-17T02:43:59;3.85;;;2.40;;
27959;SDS011;15299;48.184;-1.916;2022-07-17T02:46:28;4.30;;;2.17;;
27959;SDS011;15299;48.184;-1.916;2022-07-17T02:48:55;7.50;;;2.53;;
27959;SDS011;15299;48.184;-1.916;2022-07-17T02:51:23;4.18;;;2.45;;
27959;SDS011;15299;48.184;-1.916;2022-07-17T02:53:51;8.43;;;2.20;;
27959;SDS011;15299;48.184;-1.916;2022-07-17T02:56:18;7.20;;;2.53;;
27959;SDS011;15299;48.184;-1.916;2022-07-17T02:58:46;5.43;;;2.47;;
27959;SDS011;15299;48.184;-1.916;2022-07-17T03:01:13;6.63;;;2.85;;
27959;SDS011;15299;48.184;-1.916;2022-07-17T03:03:43;4.63;;;2.63;;
27959;SDS011;15299;48.184;-1.916;2022-07-17T03:06:11;5.82;;;2.38;;
27959;SDS011;15299;48.184;-1.916;2022-07-17T03:08:39;9.05;;;2.45;;
27959;SDS011;15299;48.184;-1.916;2022-07-17T03:11:06;3.20;;;2.00;;
27959;SDS011;15299;48.184;-1.916;2022-07-17T03:13:34;4.40;;;2.80;;
27959;SDS011;15299;48.184;-1.916;2022-07-17T03:16:02;2.88;;;2.58;;
27959;SDS011;15299;48.184;-1.916;2022-07-17T03:18:30;4.63;;;2.20;;
27959;SDS011;15299;48.184;-1.916;2022-07-17T03:20:59;7.60;;;2.53;;
27959;SDS011;15299;48.184;-1.916;2022-07-17T03:23:26;4.80;;;2.45;;
27959;SDS011;15299;48.184;-1.916;2022-07-17T03:25:54;8.23;;;2.03;;
27959;SDS011;15299;48.184;-1.916;2022-07-17T03:28:22;4.88;;;2.65;;
27959;SDS011;15299;48.184;-1.916;2022-07-17T03:30:50;6.70;;;2.38;;
27959;SDS011;15299;48.184;-1.916;2022-07-17T03:33:17;4.40;;;2.28;;
27959;SDS011;15299;48.184;-1.916;2022-07-17T03:35:45;7.50;;;2.80;;
27959;SDS011;15299;48.184;-1.916;2022-07-17T03:38:14;10.93;;;3.00;;
27959;SDS011;15299;48.184;-1.916;2022-07-17T03:40:42;10.05;;;2.40;;
27959;SDS011;15299;48.184;-1.916;2022-07-17T03:43:09;5.07;;;2.85;;
27959;SDS011;15299;48.184;-1.916;2022-07-17T03:45:37;9.52;;;2.20;;
27959;SDS011;15299;48.184;-1.916;2022-07-17T03:48:05;5.97;;;2.67;;
27959;SDS011;15299;48.184;-1.916;2022-07-17T03:50:33;3.33;;;2.25;;
27959;SDS011;15299;48.184;-1.916;2022-07-17T03:53:01;5.28;;;2.30;;
27959;SDS011;15299;48.184;-1.916;2022-07-17T03:55:30;4.00;;;2.22;;
27959;SDS011;15299;48.184;-1.916;2022-07-17T03:57:57;4.80;;;1.65;;
27959;SDS011;15299;48.184;-1.916;2022-07-17T04:00:25;4.65;;;2.30;;
27959;SDS011;15299;48.184;-1.916;2022-07-17T04:02:53;3.38;;;2.15;;
27959;SDS011;15299;48.184;-1.916;2022-07-17T04:05:20;4.45;;;2.20;;
27959;SDS011;15299;48.184;-1.916;2022-07-17T04:07:48;4.90;;;2.25;;
27959;SDS011;15299;48.184;-1.916;2022-07-17T04:10:16;9.73;;;2.42;;
27959;SDS011;15299;48.184;-1.916;2022-07-17T04:12:45;5.93;;;2.60;;
27959;SDS011;15299;48.184;-1.916;2022-07-17T04:15:13;4.60;;;2.45;;
27959;SDS011;15299;48.184;-1.916;2022-07-17T04:18:01;4.00;;;2.40;;
27959;SDS011;15299;48.184;-1.916;2022-07-17T04:20:28;7.25;;;1.67;;
27959;SDS011;15299;48.184;-1.916;2022-07-17T04:22:56;5.85;;;2.65;;
27959;SDS011;15299;48.184;-1.916;2022-07-17T04:25:24;5.05;;;2.22;;
27959;SDS011;15299;48.184;-1.916;2022-07-17T04:27:53;3.65;;;2.20;;
27959;SDS011;15299;48.184;-1.916;2022-07-17T04:30:21;4.45;;;2.20;;
27959;SDS011;15299;48.184;-1.916;2022-07-17T04:32:49;6.95;;;2.30;;
27959;SDS011;15299;48.184;-1.916;2022-07-17T04:35:16;3.78;;;2.50;;
27959;SDS011;15299;48.184;-1.916;2022-07-17T04:37:44;2.92;;;2.08;;
27959;SDS011;15299;48.184;-1.916;2022-07-17T04:40:12;7.75;;;2.83;;
27959;SDS011;15299;48.184;-1.916;2022-07-17T04:42:39;7.57;;;2.05;;
27959;SDS011;15299;48.184;-1.916;2022-07-17T04:45:09;4.80;;;2.28;;
27959;SDS011;15299;48.184;-1.916;2022-07-17T04:47:38;7.53;;;2.47;;
27959;SDS011;15299;48.184;-1.916;2022-07-17T04:50:06;3.28;;;2.30;;
27959;SDS011;15299;48.184;-1.916;2022-07-17T04:52:34;4.05;;;2.30;;
27959;SDS011;15299;48.184;-1.916;2022-07-17T04:55:02;3.53;;;1.95;;
27959;SDS011;15299;48.184;-1.916;2022-07-17T04:57:30;2.75;;;1.85;;
27959;SDS011;15299;48.184;-1.916;2022-07-17T04:59:57;4.22;;;2.45;;
27959;SDS011;15299;48.184;-1.916;2022-07-17T05:02:26;4.10;;;2.20;;
27959;SDS011;15299;48.184;-1.916;2022-07-17T05:04:54;3.30;;;2.13;;
27959;SDS011;15299;48.184;-1.916;2022-07-17T05:07:21;3.38;;;2.15;;
27959;SDS011;15299;48.184;-1.916;2022-07-17T05:09:49;3.47;;;1.73;;
27959;SDS011;15299;48.184;-1.916;2022-07-17T05:12:17;2.50;;;1.83;;
27959;SDS011;15299;48.184;-1.916;2022-07-17T05:14:45;2.75;;;2.00;;
27959;SDS011;15299;48.184;-1.916;2022-07-17T05:17:12;4.63;;;2.10;;
27959;SDS011;15299;48.184;-1.916;2022-07-17T05:19:41;6.03;;;2.45;;
27959;SDS011;15299;48.184;-1.916;2022-07-17T05:22:09;4.68;;;2.22;;
27959;SDS011;15299;48.184;-1.916;2022-07-17T05:24:37;9.18;;;2.13;;
27959;SDS011;15299;48.184;-1.916;2022-07-17T05:27:04;3.50;;;2.03;;
27959;SDS011;15299;48.184;-1.916;2022-07-17T05:29:32;4.70;;;2.47;;
27959;SDS011;15299;48.184;-1.916;2022-07-17T05:31:59;3.33;;;1.77;;
27959;SDS011;15299;48.184;-1.916;2022-07-17T05:34:27;4.03;;;2.05;;
27959;SDS011;15299;48.184;-1.916;2022-07-17T05:36:56;3.17;;;1.90;;
27959;SDS011;15299;48.184;-1.916;2022-07-17T05:39:24;3.47;;;2.08;;
27959;SDS011;15299;48.184;-1.916;2022-07-17T05:41:51;3.08;;;2.28;;
27959;SDS011;15299;48.184;-1.916;2022-07-17T05:44:19;5.82;;;2.20;;
27959;SDS011;15299;48.184;-1.916;2022-07-17T05:46:47;4.75;;;2.40;;
27959;SDS011;15299;48.184;-1.916;2022-07-17T05:49:14;4.80;;;2.28;;
27959;SDS011;15299;48.184;-1.916;2022-07-17T05:51:42;9.40;;;2.25;;
27959;SDS011;15299;48.184;-1.916;2022-07-17T05:54:11;2.15;;;1.67;;
27959;SDS011;15299;48.184;-1.916;2022-07-17T05:56:38;3.28;;;1.70;;
27959;SDS011;15299;48.184;-1.916;2022-07-17T05:59:06;3.50;;;2.10;;
27959;SDS011;15299;48.184;-1.916;2022-07-17T06:01:33;3.42;;;1.70;;
27959;SDS011;15299;48.184;-1.916;2022-07-17T06:04:01;5.30;;;1.95;;
27959;SDS011;15299;48.184;-1.916;2022-07-17T06:06:29;3.97;;;2.05;;
27959;SDS011;15299;48.184;-1.916;2022-07-17T06:08:56;3.50;;;1.85;;
27959;SDS011;15299;48.184;-1.916;2022-07-17T06:11:25;5.90;;;1.83;;
27959;SDS011;15299;48.184;-1.916;2022-07-17T06:13:53;2.53;;;1.63;;
27959;SDS011;15299;48.184;-1.916;2022-07-17T06:16:20;3.00;;;1.88;;
27959;SDS011;15299;48.184;-1.916;2022-07-17T06:18:48;4.60;;;1.90;;
27959;SDS011;15299;48.184;-1.916;2022-07-17T06:21:15;4.43;;;1.45;;
27959;SDS011;15299;48.184;-1.916;2022-07-17T06:23:43;3.45;;;1.90;;
27959;SDS011;15299;48.184;-1.916;2022-07-17T06:26:11;3.38;;;1.90;;
27959;SDS011;15299;48.184;-1.916;2022-07-17T06:28:40;4.18;;;1.75;;
27959;SDS011;15299;48.184;-1.916;2022-07-17T06:31:08;2.47;;;1.58;;
27959;SDS011;15299;48.184;-1.916;2022-07-17T06:33:35;5.60;;;2.00;;
27959;SDS011;15299;48.184;-1.916;2022-07-17T06:36:03;6.35;;;2.58;;
27959;SDS011;15299;48.184;-1.916;2022-07-17T06:38:31;5.85;;;1.88;;
27959;SDS011;15299;48.184;-1.916;2022-07-17T06:40:59;4.95;;;2.00;;
27959;SDS011;15299;48.184;-1.916;2022-07-17T06:43:27;4.28;;;2.20;;
27959;SDS011;15299;48.184;-1.916;2022-07-17T06:45:56;4.03;;;2.00;;
27959;SDS011;15299;48.184;-1.916;2022-07-17T06:48:23;6.53;;;2.17;;
27959;SDS011;15299;48.184;-1.916;2022-07-17T06:50:51;5.63;;;2.00;;
27959;SDS011;15299;48.184;-1.916;2022-07-17T06:53:19;5.65;;;2.08;;
27959;SDS011;15299;48.184;-1.916;2022-07-17T06:55:46;9.55;;;2.35;;
27959;SDS011;15299;48.184;-1.916;2022-07-17T06:58:14;3.55;;;1.77;;
27959;SDS011;15299;48.184;-1.916;2022-07-17T07:00:41;2.90;;;1.73;;
27959;SDS011;15299;48.184;-1.916;2022-07-17T07:03:10;4.28;;;1.60;;
27959;SDS011;15299;48.184;-1.916;2022-07-17T07:05:38;7.13;;;2.22;;
27959;SDS011;15299;48.184;-1.916;2022-07-17T07:08:05;3.97;;;1.92;;
27959;SDS011;15299;48.184;-1.916;2022-07-17T07:10:33;4.50;;;1.92;;
27959;SDS011;15299;48.184;-1.916;2022-07-17T07:13:00;3.67;;;1.70;;
27959;SDS011;15299;48.184;-1.916;2022-07-17T07:15:28;2.85;;;2.00;;
27959;SDS011;15299;48.184;-1.916;2022-07-17T07:17:55;3.47;;;1.60;;
27959;SDS011;15299;48.184;-1.916;2022-07-17T07:20:24;2.35;;;1.70;;
27959;SDS011;15299;48.184;-1.916;2022-07-17T07:22:52;3.88;;;2.50;;
27959;SDS011;15299;48.184;-1.916;2022-07-17T07:25:20;4.88;;;1.75;;
27959;SDS011;15299;48.184;-1.916;2022-07-17T07:27:48;4.50;;;1.83;;
27959;SDS011;15299;48.184;-1.916;2022-07-17T07:30:15;2.13;;;1.80;;
27959;SDS011;15299;48.184;-1.916;2022-07-17T07:32:43;7.65;;;1.88;;
27959;SDS011;15299;48.184;-1.916;2022-07-17T07:35:10;4.38;;;1.85;;
27959;SDS011;15299;48.184;-1.916;2022-07-17T07:37:39;2.80;;;1.88;;
27959;SDS011;15299;48.184;-1.916;2022-07-17T07:40:08;3.58;;;1.70;;
27959;SDS011;15299;48.184;-1.916;2022-07-17T07:42:36;2.88;;;1.67;;
27959;SDS011;15299;48.184;-1.916;2022-07-17T07:45:04;3.85;;;2.38;;
27959;SDS011;15299;48.184;-1.916;2022-07-17T07:47:32;5.38;;;1.63;;
27959;SDS011;15299;48.184;-1.916;2022-07-17T07:49:59;5.03;;;1.85;;
27959;SDS011;15299;48.184;-1.916;2022-07-17T07:52:27;8.40;;;2.08;;
27959;SDS011;15299;48.184;-1.916;2022-07-17T07:54:56;7.82;;;2.13;;
27959;SDS011;15299;48.184;-1.916;2022-07-17T07:57:23;4.60;;;1.85;;
27959;SDS011;15299;48.184;-1.916;2022-07-17T07:59:51;3.15;;;1.80;;
27959;SDS011;15299;48.184;-1.916;2022-07-17T08:02:18;3.85;;;2.17;;
27959;SDS011;15299;48.184;-1.916;2022-07-17T08:04:46;3.80;;;2.03;;
27959;SDS011;15299;48.184;-1.916;2022-07-17T08:07:13;2.50;;;1.83;;
27959;SDS011;15299;48.184;-1.916;2022-07-17T08:09:41;2.92;;;1.60;;
27959;SDS011;15299;48.184;-1.916;2022-07-17T08:12:10;3.20;;;2.65;;
27959;SDS011;15299;48.184;-1.916;2022-07-17T08:14:38;6.75;;;1.70;;
27959;SDS011;15299;48.184;-1.916;2022-07-17T08:17:05;7.95;;;2.13;;
27959;SDS011;15299;48.184;-1.916;2022-07-17T08:19:33;3.88;;;1.73;;
27959;SDS011;15299;48.184;-1.916;2022-07-17T08:22:00;4.63;;;1.67;;
27959;SDS011;15299;48.184;-1.916;2022-07-17T08:24:28;6.28;;;1.90;;
27959;SDS011;15299;48.184;-1.916;2022-07-17T08:26:55;4.63;;;1.98;;
27959;SDS011;15299;48.184;-1.916;2022-07-17T08:29:24;2.58;;;1.67;;
27959;SDS011;15299;48.184;-1.916;2022-07-17T08:31:52;3.28;;;1.80;;
27959;SDS011;15299;48.184;-1.916;2022-07-17T08:34:20;3.40;;;1.58;;
27959;SDS011;15299;48.184;-1.916;2022-07-17T08:36:48;2.95;;;1.40;;
27959;SDS011;15299;48.184;-1.916;2022-07-17T08:39:16;5.25;;;1.75;;
27959;SDS011;15299;48.184;-1.916;2022-07-17T08:41:46;5.13;;;1.83;;
27959;SDS011;15299;48.184;-1.916;2022-07-17T08:44:13;2.83;;;1.58;;
27959;SDS011;15299;48.184;-1.916;2022-07-17T08:46:42;5.32;;;1.75;;
27959;SDS011;15299;48.184;-1.916;2022-07-17T08:49:10;2.53;;;1.55;;
27959;SDS011;15299;48.184;-1.916;2022-07-17T08:51:39;4.47;;;2.08;;
27959;SDS011;15299;48.184;-1.916;2022-07-17T08:54:06;2.03;;;1.33;;
27959;SDS011;15299;48.184;-1.916;2022-07-17T08:56:34;2.80;;;1.60;;
27959;SDS011;15299;48.184;-1.916;2022-07-17T08:59:01;2.60;;;1.65;;
27959;SDS011;15299;48.184;-1.916;2022-07-17T09:01:29;16.02;;;2.20;;
27959;SDS011;15299;48.184;-1.916;2022-07-17T09:03:59;5.55;;;1.83;;
27959;SDS011;15299;48.184;-1.916;2022-07-17T09:06:31;4.00;;;1.63;;
27959;SDS011;15299;48.184;-1.916;2022-07-17T09:09:00;6.78;;;2.00;;
27959;SDS011;15299;48.184;-1.916;2022-07-17T09:11:28;6.95;;;1.83;;
27959;SDS011;15299;48.184;-1.916;2022-07-17T09:13:56;4.50;;;1.80;;
27959;SDS011;15299;48.184;-1.916;2022-07-17T09:16:23;4.20;;;1.42;;
27959;SDS011;15299;48.184;-1.916;2022-07-17T09:18:52;7.07;;;1.58;;
27959;SDS011;15299;48.184;-1.916;2022-07-17T09:21:23;4.25;;;1.58;;
27959;SDS011;15299;48.184;-1.916;2022-07-17T09:23:57;19.10;;;2.00;;
27959;SDS011;15299;48.184;-1.916;2022-07-17T09:26:25;1.73;;;1.60;;
27959;SDS011;15299;48.184;-1.916;2022-07-17T09:28:52;2.50;;;1.50;;
27959;SDS011;15299;48.184;-1.916;2022-07-17T09:31:24;2.92;;;1.40;;
27959;SDS011;15299;48.184;-1.916;2022-07-17T09:33:52;6.97;;;2.22;;
27959;SDS011;15299;48.184;-1.916;2022-07-17T09:36:19;3.80;;;2.08;;
27959;SDS011;15299;48.184;-1.916;2022-07-17T09:38:49;2.72;;;1.70;;
27959;SDS011;15299;48.184;-1.916;2022-07-17T09:41:19;2.33;;;1.67;;
27959;SDS011;15299;48.184;-1.916;2022-07-17T09:43:48;3.72;;;1.63;;
27959;SDS011;15299;48.184;-1.916;2022-07-17T09:46:18;2.95;;;1.70;;
27959;SDS011;15299;48.184;-1.916;2022-07-17T09:48:47;5.93;;;1.75;;
27959;SDS011;15299;48.184;-1.916;2022-07-17T09:51:15;6.65;;;1.77;;
27959;SDS011;15299;48.184;-1.916;2022-07-17T09:53:44;4.32;;;1.75;;
27959;SDS011;15299;48.184;-1.916;2022-07-17T09:56:15;4.63;;;1.42;;
27959;SDS011;15299;48.184;-1.916;2022-07-17T09:58:43;2.55;;;1.70;;
27959;SDS011;15299;48.184;-1.916;2022-07-17T10:01:13;2.33;;;1.20;;
27959;SDS011;15299;48.184;-1.916;2022-07-17T10:03:41;2.97;;;1.50;;
27959;SDS011;15299;48.184;-1.916;2022-07-17T10:06:09;6.15;;;2.47;;
27959;SDS011;15299;48.184;-1.916;2022-07-17T10:08:37;5.05;;;1.40;;
27959;SDS011;15299;48.184;-1.916;2022-07-17T10:11:05;3.00;;;1.08;;
27959;SDS011;15299;48.184;-1.916;2022-07-17T10:13:34;7.90;;;1.77;;
27959;SDS011;15299;48.184;-1.916;2022-07-17T10:16:02;5.95;;;1.48;;
27959;SDS011;15299;48.184;-1.916;2022-07-17T10:18:34;3.95;;;1.40;;
27959;SDS011;15299;48.184;-1.916;2022-07-17T10:21:10;8.73;;;1.70;;
27959;SDS011;15299;48.184;-1.916;2022-07-17T10:23:39;3.25;;;1.38;;
27959;SDS011;15299;48.184;-1.916;2022-07-17T10:26:07;8.15;;;1.20;;
27959;SDS011;15299;48.184;-1.916;2022-07-17T10:28:40;1.63;;;1.17;;
27959;SDS011;15299;48.184;-1.916;2022-07-17T10:31:08;3.17;;;1.23;;
27959;SDS011;15299;48.184;-1.916;2022-07-17T10:33:36;2.05;;;1.33;;
27959;SDS011;15299;48.184;-1.916;2022-07-17T10:36:03;1.70;;;1.08;;
27959;SDS011;15299;48.184;-1.916;2022-07-17T10:38:40;3.60;;;1.30;;
27959;SDS011;15299;48.184;-1.916;2022-07-17T10:41:07;2.13;;;1.20;;
27959;SDS011;15299;48.184;-1.916;2022-07-17T10:43:43;1.27;;;1.00;;
27959;SDS011;15299;48.184;-1.916;2022-07-17T10:46:11;2.72;;;1.50;;
27959;SDS011;15299;48.184;-1.916;2022-07-17T10:48:38;3.25;;;1.33;;
27959;SDS011;15299;48.184;-1.916;2022-07-17T10:51:07;1.85;;;1.20;;
27959;SDS011;15299;48.184;-1.916;2022-07-17T10:53:34;8.43;;;1.20;;
27959;SDS011;15299;48.184;-1.916;2022-07-17T10:56:02;6.10;;;1.50;;
27959;SDS011;15299;48.184;-1.916;2022-07-17T10:58:31;4.63;;;1.40;;
27959;SDS011;15299;48.184;-1.916;2022-07-17T11:01:02;2.25;;;1.13;;
27959;SDS011;15299;48.184;-1.916;2022-07-17T11:03:30;5.85;;;1.50;;
27959;SDS011;15299;48.184;-1.916;2022-07-17T11:06:08;5.15;;;1.35;;
27959;SDS011;15299;48.184;-1.916;2022-07-17T11:08:36;3.70;;;1.15;;
27959;SDS011;15299;48.184;-1.916;2022-07-17T11:11:07;6.78;;;3.25;;
27959;SDS011;15299;48.184;-1.916;2022-07-17T11:13:34;3.60;;;1.60;;
27959;SDS011;15299;48.184;-1.916;2022-07-17T11:16:04;4.72;;;1.33;;
27959;SDS011;15299;48.184;-1.916;2022-07-17T11:18:31;2.67;;;0.90;;
27959;SDS011;15299;48.184;-1.916;2022-07-17T11:20:59;4.57;;;1.00;;
27959;SDS011;15299;48.184;-1.916;2022-07-17T11:23:28;2.63;;;1.10;;
27959;SDS011;15299;48.184;-1.916;2022-07-17T11:25:59;7.28;;;1.10;;
27959;SDS011;15299;48.184;-1.916;2022-07-17T11:28:28;1.80;;;1.17;;
27959;SDS011;15299;48.184;-1.916;2022-07-17T11:30:55;3.85;;;1.52;;
27959;SDS011;15299;48.184;-1.916;2022-07-17T11:33:24;2.88;;;1.33;;
27959;SDS011;15299;48.184;-1.916;2022-07-17T11:35:52;2.08;;;1.27;;
27959;SDS011;15299;48.184;-1.916;2022-07-17T11:38:24;3.63;;;0.90;;
27959;SDS011;15299;48.184;-1.916;2022-07-17T11:40:52;1.50;;;0.95;;
27959;SDS011;15299;48.184;-1.916;2022-07-17T11:43:21;2.85;;;0.95;;
27959;SDS011;15299;48.184;-1.916;2022-07-17T11:45:48;1.27;;;1.10;;
27959;SDS011;15299;48.184;-1.916;2022-07-17T11:48:16;1.30;;;0.98;;
27959;SDS011;15299;48.184;-1.916;2022-07-17T11:50:55;1.52;;;0.90;;
27959;SDS011;15299;48.184;-1.916;2022-07-17T11:56:08;4.07;;;1.42;;
27959;SDS011;15299;48.184;-1.916;2022-07-17T11:58:46;2.40;;;1.17;;
27959;SDS011;15299;48.184;-1.916;2022-07-17T12:01:14;2.67;;;1.00;;
27959;SDS011;15299;48.184;-1.916;2022-07-17T12:03:42;2.70;;;1.00;;
27959;SDS011;15299;48.184;-1.916;2022-07-17T12:06:11;1.42;;;1.00;;
27959;SDS011;15299;48.184;-1.916;2022-07-17T12:08:38;2.65;;;1.00;;
27959;SDS011;15299;48.184;-1.916;2022-07-17T12:11:06;2.35;;;1.00;;
27959;SDS011;15299;48.184;-1.916;2022-07-17T12:13:38;3.10;;;1.15;;
27959;SDS011;15299;48.184;-1.916;2022-07-17T12:16:17;6.50;;;1.48;;
27959;SDS011;15299;48.184;-1.916;2022-07-17T12:18:54;7.78;;;1.75;;
27959;SDS011;15299;48.184;-1.916;2022-07-17T12:21:24;2.78;;;1.15;;
27959;SDS011;15299;48.184;-1.916;2022-07-17T12:23:56;1.45;;;0.85;;
27959;SDS011;15299;48.184;-1.916;2022-07-17T12:26:24;2.50;;;1.00;;
27959;SDS011;15299;48.184;-1.916;2022-07-17T12:28:52;1.98;;;1.23;;
27959;SDS011;15299;48.184;-1.916;2022-07-17T12:31:19;4.50;;;1.40;;
27959;SDS011;15299;48.184;-1.916;2022-07-17T12:33:50;1.60;;;1.13;;
27959;SDS011;15299;48.184;-1.916;2022-07-17T12:36:17;1.98;;;0.90;;
27959;SDS011;15299;48.184;-1.916;2022-07-17T12:38:46;2.83;;;0.95;;
27959;SDS011;15299;48.184;-1.916;2022-07-17T12:41:14;1.55;;;0.90;;
27959;SDS011;15299;48.184;-1.916;2022-07-17T12:43:41;0.88;;;0.70;;
27959;SDS011;15299;48.184;-1.916;2022-07-17T12:46:09;1.63;;;1.02;;
27959;SDS011;15299;48.184;-1.916;2022-07-17T12:48:37;1.00;;;0.85;;
27959;SDS011;15299;48.184;-1.916;2022-07-17T12:51:05;3.63;;;0.90;;
27959;SDS011;15299;48.184;-1.916;2022-07-17T12:53:33;0.98;;;0.85;;
27959;SDS011;15299;48.184;-1.916;2022-07-17T12:56:03;2.92;;;0.90;;
27959;SDS011;15299;48.184;-1.916;2022-07-17T12:58:31;1.58;;;0.80;;
27959;SDS011;15299;48.184;-1.916;2022-07-17T13:00:59;0.95;;;0.70;;
27959;SDS011;15299;48.184;-1.916;2022-07-17T13:03:27;5.07;;;0.80;;
27959;SDS011;15299;48.184;-1.916;2022-07-17T13:05:55;1.08;;;0.70;;
27959;SDS011;15299;48.184;-1.916;2022-07-17T13:08:23;1.85;;;1.08;;
27959;SDS011;15299;48.184;-1.916;2022-07-17T13:10:50;2.95;;;0.90;;
27959;SDS011;15299;48.184;-1.916;2022-07-17T13:13:19;0.77;;;0.60;;
27959;SDS011;15299;48.184;-1.916;2022-07-17T13:15:47;1.08;;;0.70;;
27959;SDS011;15299;48.184;-1.916;2022-07-17T13:18:15;0.80;;;0.57;;
27959;SDS011;15299;48.184;-1.916;2022-07-17T13:20:42;5.38;;;1.00;;
27959;SDS011;15299;48.184;-1.916;2022-07-17T13:23:12;2.08;;;0.80;;
27959;SDS011;15299;48.184;-1.916;2022-07-17T13:25:40;8.25;;;1.50;;
27959;SDS011;15299;48.184;-1.916;2022-07-17T13:28:09;1.02;;;0.80;;
27959;SDS011;15299;48.184;-1.916;2022-07-17T13:30:38;3.08;;;1.00;;
27959;SDS011;15299;48.184;-1.916;2022-07-17T13:33:06;0.73;;;0.70;;
27959;SDS011;15299;48.184;-1.916;2022-07-17T13:35:33;2.92;;;0.82;;
27959;SDS011;15299;48.184;-1.916;2022-07-17T13:38:01;1.45;;;0.90;;
27959;SDS011;15299;48.184;-1.916;2022-07-17T13:40:29;1.70;;;0.90;;
27959;SDS011;15299;48.184;-1.916;2022-07-17T13:42:57;1.30;;;0.80;;
27959;SDS011;15299;48.184;-1.916;2022-07-17T13:45:26;5.85;;;1.10;;
27959;SDS011;15299;48.184;-1.916;2022-07-17T13:47:55;3.15;;;0.90;;
27959;SDS011;15299;48.184;-1.916;2022-07-17T13:50:23;4.28;;;1.20;;
27959;SDS011;15299;48.184;-1.916;2022-07-17T13:52:50;3.00;;;0.75;;
27959;SDS011;15299;48.184;-1.916;2022-07-17T13:55:18;0.98;;;0.85;;
27959;SDS011;15299;48.184;-1.916;2022-07-17T13:57:46;3.13;;;1.45;;
27959;SDS011;15299;48.184;-1.916;2022-07-17T14:00:14;1.45;;;0.90;;
27959;SDS011;15299;48.184;-1.916;2022-07-17T14:02:42;3.22;;;1.27;;
27959;SDS011;15299;48.184;-1.916;2022-07-17T14:05:12;6.25;;;1.23;;
27959;SDS011;15299;48.184;-1.916;2022-07-17T14:07:39;1.20;;;1.00;;
27959;SDS011;15299;48.184;-1.916;2022-07-17T14:10:08;3.58;;;0.98;;
27959;SDS011;15299;48.184;-1.916;2022-07-17T14:12:36;3.70;;;1.08;;
27959;SDS011;15299;48.184;-1.916;2022-07-17T14:15:04;5.55;;;0.80;;
27959;SDS011;15299;48.184;-1.916;2022-07-17T14:17:33;1.00;;;0.70;;
27959;SDS011;15299;48.184;-1.916;2022-07-17T14:20:00;1.60;;;0.85;;
27959;SDS011;15299;48.184;-1.916;2022-07-17T14:22:29;1.90;;;0.90;;
27959;SDS011;15299;48.184;-1.916;2022-07-17T14:24:57;4.22;;;1.00;;
27959;SDS011;15299;48.184;-1.916;2022-07-17T14:27:24;1.90;;;1.20;;
27959;SDS011;15299;48.184;-1.916;2022-07-17T14:29:52;3.58;;;1.00;;
27959;SDS011;15299;48.184;-1.916;2022-07-17T14:32:20;1.45;;;0.88;;
27959;SDS011;15299;48.184;-1.916;2022-07-17T14:34:47;1.75;;;0.85;;
27959;SDS011;15299;48.184;-1.916;2022-07-17T14:37:15;2.13;;;1.10;;
27959;SDS011;15299;48.184;-1.916;2022-07-17T14:39:44;1.45;;;0.80;;
27959;SDS011;15299;48.184;-1.916;2022-07-17T14:42:12;1.77;;;1.00;;